Time;durP1;ratioP1;P1;durP2;ratioP2;P2;SDS_P1;SDS_P2;PMS_P1;PMS_P2;Temp;Humidity;BMP_temperature;BMP_pressure;BME280_temperature;BME280_humidity;BME280_pressure;Samples;Min_cycle;Max_cycle;Signal;HPM_P1;HPM_P2
2022/02/06 00:01:58;;;;;;;;;8.50;5.00;;;;;9.07;58.91;101836.47;5041078;28;45386;-45
2022/02/06 00:04:24;;;;;;;;;13.25;6.00;;;;;9.11;58.95;101826.88;5039665;28;48054;-42
2022/02/06 00:06:49;;;;;;;;;7.00;4.75;;;;;9.13;58.69;101832.13;5040976;28;45375;-43
2022/02/06 00:09:14;;;;;;;;;9.00;4.75;;;;;9.11;59.18;101822.50;5041101;28;45403;-44
2022/02/06 00:11:40;;;;;;;;;7.50;5.00;;;;;9.11;59.00;101821.63;5040677;28;45576;-44
2022/02/06 00:14:05;;;;;;;;;4.50;4.50;;;;;9.09;59.16;101824.25;5040845;28;45979;-45
2022/02/06 00:16:31;;;;;;;;;4.75;4.00;;;;;9.09;58.93;101818.13;5040914;28;45302;-46
2022/02/06 00:18:56;;;;;;;;;7.00;5.00;;;;;9.11;59.11;101811.16;5040994;28;45383;-45
2022/02/06 00:21:22;;;;;;;;;4.00;3.25;;;;;9.11;59.13;101800.66;5040860;28;45474;-47
2022/02/06 00:23:51;;;;;;;;;6.00;3.00;;;;;9.09;59.11;101789.25;5039338;28;47088;-48
2022/02/06 00:26:41;;;;;;;;;7.00;7.00;;;;;9.08;59.22;101788.41;5035699;28;45261;-44
2022/02/06 00:31:48;;;;;;;;;4.75;4.50;;;;;9.06;59.13;101763.03;5040602;28;45427;-47
2022/02/06 00:34:47;;;;;;;;;5.25;3.50;;;;;9.06;59.28;101760.41;5040190;28;45271;-44
2022/02/06 00:39:58;;;;;;;;;6.25;4.25;;;;;9.06;59.38;101770.91;5040560;28;45372;-45
2022/02/06 00:42:24;;;;;;;;;2.75;2.75;;;;;9.10;59.43;101763.06;5038733;28;45465;-43
2022/02/06 00:44:50;;;;;;;;;7.25;3.75;;;;;9.12;59.35;101770.97;5040256;28;46073;-43
2022/02/06 00:47:15;;;;;;;;;5.00;5.00;;;;;9.11;59.24;101770.06;5040483;28;45245;-43
2022/02/06 00:49:42;;;;;;;;;8.50;3.75;;;;;9.08;59.41;101748.16;5040519;28;45216;-43
2022/02/06 00:54:33;;;;;;;;;4.25;4.25;;;;;9.10;59.51;101730.72;5040067;28;45333;-44
2022/02/06 00:56:58;;;;;;;;;3.00;3.00;;;;;9.07;59.60;101723.72;5038653;28;45544;-43
2022/02/06 00:59:23;;;;;;;;;5.25;5.25;;;;;9.10;59.24;101730.72;5040310;28;45168;-46
2022/02/06 01:01:49;;;;;;;;;4.25;2.50;;;;;9.09;59.64;101719.38;5040039;28;45423;-43
2022/02/06 01:04:15;;;;;;;;;5.00;3.25;;;;;9.07;59.52;101723.72;5040029;28;47424;-43
2022/02/06 01:06:41;;;;;;;;;7.00;4.50;;;;;9.07;59.58;101741.19;5039954;28;45302;-43
2022/02/06 01:09:08;;;;;;;;;3.75;3.00;;;;;9.05;59.49;101735.91;5040207;28;45324;-43
2022/02/06 01:11:35;;;;;;;;;3.75;2.75;;;;;9.06;59.82;101750.78;5039641;28;45328;-44
2022/02/06 01:17:02;;;;;;;;;4.25;4.25;;;;;9.02;59.68;101722.78;5038879;28;45537;-42
2022/02/06 01:19:37;;;;;;;;;6.00;4.50;;;;;9.00;59.85;101737.63;5039961;28;45329;-44
2022/02/06 01:22:07;;;;;;;;;4.00;3.75;;;;;8.99;59.90;101735.88;5039847;28;45303;-43
2022/02/06 01:27:23;;;;;;;;;4.75;3.50;;;;;8.96;59.98;101740.22;5039619;28;45223;-45
2022/02/06 01:32:23;;;;;;;;;7.00;5.00;;;;;8.93;60.13;101728.84;5039775;28;45295;-43
2022/02/06 01:34:58;;;;;;;;;2.25;2.00;;;;;8.91;60.03;101730.56;5039711;28;47180;-44
2022/02/06 01:37:25;;;;;;;;;4.00;3.00;;;;;8.94;59.70;101729.72;5038293;28;45670;-43
2022/02/06 01:40:02;;;;;;;;;5.25;5.25;;;;;8.93;60.01;101722.69;5042173;28;45217;-45
2022/02/06 01:42:31;;;;;;;;;2.50;2.50;;;;;8.91;59.73;101724.44;5057887;28;45566;-45
2022/02/06 02:06:44;;;;;;;;;3.75;3.50;;;;;8.89;60.36;101689.47;5042889;28;45364;-45
2022/02/06 02:27:03;;;;;;;;;5.00;4.00;;;;;8.83;60.06;101665.81;5031359;28;46050;-43
2022/02/06 02:48:05;;;;;;;;;8.50;5.25;;;;;8.85;60.27;101651.00;5061047;28;46140;-42
2022/02/06 02:50:34;;;;;;;;;3.75;3.75;;;;;8.83;60.26;101637.00;5054684;28;45321;-42
2022/02/06 02:58:24;;;;;;;;;3.00;2.25;;;;;8.87;60.20;101628.31;5042122;28;45441;-42
2022/02/06 03:01:02;;;;;;;;;3.75;3.75;;;;;8.90;60.32;101629.19;5042186;28;45326;-42
2022/02/06 03:03:31;;;;;;;;;4.00;4.00;;;;;8.90;60.09;101620.47;5042107;28;45362;-43
2022/02/06 03:05:59;;;;;;;;;2.75;2.50;;;;;8.91;60.57;101615.22;5021362;28;45550;-42
2022/02/06 03:08:25;;;;;;;;;4.25;3.50;;;;;8.92;60.44;101608.25;5028597;28;47260;-42
2022/02/06 03:10:53;;;;;;;;;2.75;2.00;;;;;8.93;60.62;101616.13;5041521;28;45308;-42
2022/02/06 03:13:21;;;;;;;;;7.75;4.00;;;;;8.93;60.26;101592.53;5041775;28;45381;-42
2022/02/06 03:18:20;;;;;;;;;3.00;2.50;;;;;8.90;60.43;101578.50;5042015;28;46159;-42
2022/02/06 03:20:46;;;;;;;;;2.75;1.50;;;;;8.96;60.54;101591.66;5041774;28;45269;-42
2022/02/06 03:23:14;;;;;;;;;3.00;2.00;;;;;8.93;60.61;101589.00;5040821;28;45406;-42
2022/02/06 03:28:34;;;;;;;;;4.75;3.50;;;;;8.93;61.01;101529.59;5036638;28;45440;-42
2022/02/06 03:31:00;;;;;;;;;2.00;2.00;;;;;8.96;60.79;101533.13;5041574;28;45229;-42
2022/02/06 03:33:25;;;;;;;;;3.75;1.25;;;;;8.93;60.82;101561.06;5041781;28;45311;-43
2022/02/06 03:35:50;;;;;;;;;4.50;3.25;;;;;8.98;60.87;101562.81;5040183;28;45343;-43
2022/02/06 03:38:16;;;;;;;;;4.25;2.50;;;;;8.97;60.94;101540.09;5041693;28;45375;-43
2022/02/06 03:40:59;;;;;;;;;4.75;3.50;;;;;8.89;61.12;101521.69;5040946;28;45424;-42
2022/02/06 03:46:16;;;;;;;;;7.00;4.50;;;;;8.97;61.13;101548.84;5041327;28;45292;-42
2022/02/06 03:48:52;;;;;;;;;5.50;3.00;;;;;9.00;61.42;101556.72;5041193;28;46946;-43
2022/02/06 03:51:31;;;;;;;;;6.00;3.00;;;;;9.00;61.20;101564.59;5041222;28;45239;-42
2022/02/06 03:53:57;;;;;;;;;9.00;4.50;;;;;9.01;61.37;101563.72;5028476;28;45429;-41
2022/02/06 03:56:24;;;;;;;;;2.25;2.25;;;;;9.05;61.24;101562.00;5040892;28;45484;-42
2022/02/06 03:58:49;;;;;;;;;3.00;1.00;;;;;9.02;61.28;101541.88;5041234;28;45520;-42
2022/02/06 04:01:15;;;;;;;;;5.25;3.25;;;;;9.01;61.31;101545.38;5040701;28;45351;-43
2022/02/06 04:03:41;;;;;;;;;5.00;3.00;;;;;9.01;61.29;101542.75;5041303;28;45230;-43
2022/02/06 04:06:06;;;;;;;;;4.00;4.00;;;;;9.01;61.30;101540.13;5039324;28;45250;-42
2022/02/06 04:08:35;;;;;;;;;3.50;3.00;;;;;9.04;61.28;101536.63;5041176;28;45418;-43
2022/02/06 04:11:03;;;;;;;;;3.50;3.50;;;;;9.05;61.54;101546.25;5040540;28;45314;-42
2022/02/06 04:13:30;;;;;;;;;3.50;3.50;;;;;9.04;61.45;101539.25;5041163;28;45268;-43
2022/02/06 04:16:02;;;;;;;;;6.00;4.00;;;;;9.05;61.42;101534.00;5020920;28;45672;-41
2022/02/06 04:20:53;;;;;;;;;3.25;2.00;;;;;9.04;61.49;101545.41;5040732;28;45291;-43
2022/02/06 04:23:18;;;;;;;;;3.00;3.00;;;;;9.02;61.32;101534.00;5041120;28;45235;-43
2022/02/06 04:25:44;;;;;;;;;2.75;2.75;;;;;9.03;61.57;101525.28;5040422;28;45287;-42
2022/02/06 04:28:10;;;;;;;;;5.75;4.00;;;;;9.01;61.32;101519.16;5040856;28;46200;-42
2022/02/06 04:30:35;;;;;;;;;5.00;4.00;;;;;9.01;61.31;101511.28;5040707;28;45267;-43
2022/02/06 04:33:00;;;;;;;;;4.75;3.00;;;;;9.02;61.46;101518.28;5040810;28;45436;-42
2022/02/06 04:35:31;;;;;;;;;4.50;3.00;;;;;9.02;61.30;101497.31;5040523;28;45493;-42
2022/02/06 05:15:52;;;;;;;;;2.75;2.50;;;;;8.77;62.12;101428.19;5039581;28;45429;-42
2022/02/06 05:28:37;;;;;;;;;2.00;1.00;;;;;8.72;62.34;101422.06;5039968;28;45181;-42
2022/02/06 05:33:30;;;;;;;;;5.25;2.00;;;;;8.72;62.16;101403.72;5039630;28;45308;-45
2022/02/06 05:35:55;;;;;;;;;3.75;3.00;;;;;8.71;62.14;101397.56;5039794;28;45303;-42
2022/02/06 05:38:21;;;;;;;;;3.50;2.00;;;;;8.72;62.48;101385.38;5038537;28;45812;-43
2022/02/06 05:40:46;;;;;;;;;2.50;2.50;;;;;8.71;62.19;101368.75;5039158;28;45887;-41
2022/02/06 05:43:11;;;;;;;;;3.25;3.25;;;;;8.66;62.44;101367.00;5039707;28;45311;-43
2022/02/06 05:45:37;;;;;;;;;5.75;4.25;;;;;8.68;62.39;101373.09;5039753;28;45295;-42
2022/02/06 05:48:04;;;;;;;;;3.75;3.00;;;;;8.69;62.29;101380.09;5039794;28;45378;-44
2022/02/06 05:50:30;;;;;;;;;3.00;3.00;;;;;8.69;62.33;101378.38;5039425;28;45964;-42
2022/02/06 05:52:55;;;;;;;;;4.00;2.75;;;;;8.68;62.58;101358.25;5038301;28;45264;-41
2022/02/06 05:55:21;;;;;;;;;3.75;2.25;;;;;8.68;62.20;101360.88;5039456;28;45137;-41
2022/02/06 05:57:47;;;;;;;;;5.50;4.00;;;;;8.70;62.73;101356.50;5039206;28;45391;-42
2022/02/06 06:00:13;;;;;;;;;2.75;2.00;;;;;8.70;62.57;101347.78;5039260;28;46302;-46
2022/02/06 06:02:39;;;;;;;;;3.50;3.00;;;;;8.68;62.58;101333.78;5038295;28;45315;-45
2022/02/06 06:05:05;;;;;;;;;3.25;3.25;;;;;8.69;62.63;101351.28;5039418;28;45427;-43
2022/02/06 06:07:30;;;;;;;;;2.50;2.50;;;;;8.70;62.79;101364.38;5039567;28;45265;-44
2022/02/06 06:09:56;;;;;;;;;2.75;2.25;;;;;8.70;62.49;101358.25;5038860;28;46318;-47
2022/02/06 06:12:21;;;;;;;;;3.00;3.00;;;;;8.69;62.94;101336.44;5039226;28;45306;-47
2022/02/06 06:14:47;;;;;;;;;3.50;2.75;;;;;8.69;62.62;101356.50;5039388;28;45823;-47
2022/02/06 06:17:13;;;;;;;;;1.50;1.25;;;;;8.69;63.04;101346.03;5039359;28;45363;-48
2022/02/06 06:19:43;;;;;;;;;3.75;3.50;;;;;8.70;62.61;101338.16;5038915;28;46164;-45
2022/02/06 06:22:10;;;;;;;;;3.75;3.00;;;;;8.69;62.57;101354.78;5038147;28;45281;-45
2022/02/06 06:24:41;;;;;;;;;2.75;2.00;;;;;8.72;62.70;101352.16;5039651;28;45256;-44
2022/02/06 06:27:06;;;;;;;;;4.00;2.75;;;;;8.73;63.09;101343.44;5042390;28;45455;-44
2022/02/06 06:29:32;;;;;;;;;3.50;3.50;;;;;8.73;62.75;101335.56;5042580;28;46055;-46
2022/02/06 06:31:57;;;;;;;;;3.50;2.25;;;;;8.72;62.84;101333.81;5042588;28;45256;-44
2022/02/06 06:34:22;;;;;;;;;3.00;2.00;;;;;8.74;62.98;101318.09;5042706;28;45282;-44
2022/02/06 06:36:49;;;;;;;;;2.25;1.00;;;;;8.70;62.97;101317.19;5042602;28;45458;-43
2022/02/06 06:39:22;;;;;;;;;2.25;2.25;;;;;8.73;62.84;101298.88;5041062;28;45380;-49
2022/02/06 06:41:47;;;;;;;;;3.25;2.25;;;;;8.73;62.88;101338.19;5040027;28;45393;-48
2022/02/06 06:44:13;;;;;;;;;5.00;1.50;;;;;8.73;62.97;101311.97;5042064;28;45553;-45
2022/02/06 06:46:38;;;;;;;;;3.25;3.25;;;;;8.75;63.21;101327.69;5042248;28;45542;-45
2022/02/06 06:49:03;;;;;;;;;2.50;2.00;;;;;8.73;63.00;101327.72;5042139;28;45309;-44
2022/02/06 06:51:29;;;;;;;;;3.00;1.25;;;;;8.77;62.99;101324.22;5041889;28;45449;-45
2022/02/06 06:53:54;;;;;;;;;3.00;3.00;;;;;8.78;63.18;101333.84;5041780;28;45579;-45
2022/02/06 06:56:32;;;;;;;;;4.75;4.00;;;;;8.74;62.85;101334.69;5041867;28;45364;-46
2022/02/06 06:58:58;;;;;;;;;5.25;2.75;;;;;8.75;63.10;101332.94;5041691;28;46237;-46
2022/02/06 07:04:07;;;;;;;;;2.00;1.50;;;;;8.71;63.20;101313.72;5041992;28;45353;-45
2022/02/06 07:06:33;;;;;;;;;3.50;2.00;;;;;8.72;63.29;101314.59;5040431;28;45347;-46
2022/02/06 07:08:58;;;;;;;;;4.75;2.75;;;;;8.73;63.28;101311.09;5041995;28;45419;-46
2022/02/06 07:11:24;;;;;;;;;3.50;3.50;;;;;8.74;63.34;101334.69;5041460;28;45351;-43
2022/02/06 07:13:49;;;;;;;;;5.00;3.00;;;;;8.73;63.08;101306.75;5042101;28;45362;-47
2022/02/06 07:16:14;;;;;;;;;3.50;2.50;;;;;8.70;63.27;101304.09;5041741;28;45572;-44
2022/02/06 07:18:40;;;;;;;;;5.00;2.75;;;;;8.73;63.12;101305.84;5041919;28;45279;-45
2022/02/06 07:21:05;;;;;;;;;2.00;2.00;;;;;8.75;63.24;101314.59;5041856;28;45150;-48
2022/02/06 07:23:30;;;;;;;;;1.75;1.00;;;;;8.76;63.32;101301.50;5041957;28;45208;-47
2022/02/06 07:26:01;;;;;;;;;6.00;2.75;;;;;8.74;63.28;101284.03;5041241;28;45422;-47
2022/02/06 07:28:26;;;;;;;;;2.00;2.00;;;;;8.74;63.31;101310.22;5041702;28;46186;-47
2022/02/06 07:30:52;;;;;;;;;2.50;2.00;;;;;8.75;63.24;101302.41;5041534;28;45390;-45
2022/02/06 07:33:20;;;;;;;;;3.00;2.00;;;;;8.73;63.55;101301.50;5041659;28;45257;-44
2022/02/06 07:35:46;;;;;;;;;5.50;2.75;;;;;8.77;63.40;101291.91;5041300;28;45256;-47
2022/02/06 07:38:14;;;;;;;;;3.00;2.25;;;;;8.80;63.35;101285.78;5039695;28;46024;-44
2022/02/06 07:40:40;;;;;;;;;3.75;2.00;;;;;8.82;63.29;101289.28;5039591;28;45319;-48
2022/02/06 07:43:05;;;;;;;;;4.00;4.00;;;;;8.80;63.63;101286.66;5040083;28;45390;-44
2022/02/06 07:45:32;;;;;;;;;3.00;2.25;;;;;8.86;63.51;101288.44;5041239;28;45341;-46
2022/02/06 07:47:57;;;;;;;;;1.75;1.00;;;;;8.84;63.29;101274.44;5041339;28;45477;-46
2022/02/06 07:50:23;;;;;;;;;3.00;3.00;;;;;8.88;63.08;101279.69;5040935;28;45327;-45
2022/02/06 07:52:49;;;;;;;;;4.00;4.00;;;;;8.90;63.50;101267.44;5041299;28;45252;-49
2022/02/06 07:55:14;;;;;;;;;2.00;2.00;;;;;8.89;63.13;101259.59;5040933;28;45502;-45
2022/02/06 07:57:39;;;;;;;;;3.00;2.00;;;;;8.89;63.30;101256.97;5039819;28;46319;-48
2022/02/06 08:00:06;;;;;;;;;2.00;2.00;;;;;8.89;63.26;101249.09;5041090;28;45251;-49
2022/02/06 08:02:32;;;;;;;;;1.50;1.50;;;;;8.87;63.22;101237.75;5040064;28;45267;-46
2022/02/06 08:04:58;;;;;;;;;3.00;2.50;;;;;8.91;63.44;101247.38;5040852;28;45188;-50
2022/02/06 08:07:24;;;;;;;;;3.75;1.00;;;;;8.90;63.43;101220.25;5041100;28;47211;-45
2022/02/06 08:12:27;;;;;;;;;1.75;1.00;;;;;8.94;63.42;101215.91;5041012;28;45327;-47
2022/02/06 08:14:56;;;;;;;;;3.75;2.50;;;;;8.94;63.57;101211.56;5040754;28;45287;-45
2022/02/06 08:17:30;;;;;;;;;1.00;1.00;;;;;8.97;63.46;101194.06;5039386;28;47132;-47
2022/02/06 08:19:58;;;;;;;;;3.00;2.75;;;;;8.96;63.48;101182.72;5040894;28;45243;-49
2022/02/06 08:22:24;;;;;;;;;4.75;3.25;;;;;9.00;63.32;101192.31;5040738;28;45239;-48
2022/02/06 08:24:50;;;;;;;;;3.00;1.75;;;;;9.00;63.44;101202.78;5040586;28;45179;-48
2022/02/06 08:27:20;;;;;;;;;3.75;2.25;;;;;9.01;63.59;101182.72;5040231;28;45581;-48
2022/02/06 08:29:47;;;;;;;;;2.00;2.00;;;;;9.01;63.67;101191.44;5039160;28;46147;-46
2022/02/06 08:32:14;;;;;;;;;4.25;2.75;;;;;9.04;63.66;101183.59;5040266;28;45498;-49
2022/02/06 08:34:40;;;;;;;;;4.25;2.00;;;;;9.05;63.72;101187.06;5040502;28;45372;-47
2022/02/06 08:37:05;;;;;;;;;3.00;3.00;;;;;9.09;63.97;101176.59;5040384;28;46195;-46
2022/02/06 08:39:32;;;;;;;;;2.00;2.00;;;;;9.09;63.78;101194.94;5038902;28;45408;-49
2022/02/06 08:41:59;;;;;;;;;4.00;3.75;;;;;9.14;63.94;101188.81;5040404;28;45343;-46
2022/02/06 08:44:25;;;;;;;;;2.25;2.25;;;;;9.18;63.81;101161.69;5040385;28;45193;-45
2022/02/06 08:46:50;;;;;;;;;4.00;1.75;;;;;9.19;63.84;101173.94;5040074;28;46013;-44
2022/02/06 08:49:17;;;;;;;;;2.00;2.00;;;;;9.19;63.84;101163.47;5039631;28;45301;-47
2022/02/06 08:51:44;;;;;;;;;1.50;1.00;;;;;9.23;64.16;101152.97;5040236;28;45727;-45
2022/02/06 08:54:10;;;;;;;;;4.25;1.25;;;;;9.24;64.00;101156.44;5040153;28;45268;-45
2022/02/06 08:56:39;;;;;;;;;2.50;1.25;;;;;9.26;64.13;101171.31;5039807;28;46448;-47
2022/02/06 08:59:08;;;;;;;;;3.25;2.25;;;;;9.27;64.26;101151.22;5040246;28;45385;-47
2022/02/06 09:01:35;;;;;;;;;2.50;2.50;;;;;9.28;64.45;101145.06;5040011;28;45470;-47
2022/02/06 09:04:00;;;;;;;;;2.50;2.25;;;;;9.32;64.87;101140.69;5038788;28;45942;-48
2022/02/06 09:06:26;;;;;;;;;2.00;1.75;;;;;9.33;64.71;101145.06;5038587;28;45315;-46
2022/02/06 09:08:57;;;;;;;;;1.75;1.75;;;;;9.35;64.85;101146.81;5039986;28;45473;-48
2022/02/06 09:11:24;;;;;;;;;2.50;2.00;;;;;9.38;64.74;101122.31;5039505;28;45286;-48
2022/02/06 09:13:49;;;;;;;;;3.00;2.00;;;;;9.38;64.81;101117.97;5039990;28;45239;-47
2022/02/06 09:16:15;;;;;;;;;7.50;2.25;;;;;9.39;65.05;101118.81;5038446;28;45835;-50
2022/02/06 09:18:40;;;;;;;;;3.00;2.25;;;;;9.39;65.06;101109.19;5039980;28;45380;-47
2022/02/06 09:21:05;;;;;;;;;3.00;1.00;;;;;9.40;64.97;101117.94;5039887;28;45319;-46
2022/02/06 09:23:30;;;;;;;;;1.00;1.00;;;;;9.38;65.05;101107.47;5039936;28;45318;-44
2022/02/06 09:25:56;;;;;;;;;4.50;2.00;;;;;9.41;65.03;101117.06;5038053;28;45367;-49
2022/02/06 09:28:21;;;;;;;;;2.25;1.75;;;;;9.41;65.03;101114.44;5040015;28;45660;-44
2022/02/06 09:30:47;;;;;;;;;2.25;2.25;;;;;9.39;65.08;101103.94;5039881;28;45307;-46
2022/02/06 09:35:38;;;;;;;;;2.75;2.00;;;;;9.38;65.02;101114.44;5039513;28;45472;-46
2022/02/06 09:38:04;;;;;;;;;2.00;1.00;;;;;9.39;65.74;101108.31;5039601;28;45327;-47
2022/02/06 09:40:37;;;;;;;;;2.00;2.00;;;;;9.35;65.70;101098.72;5039112;28;45322;-50
2022/02/06 09:43:03;;;;;;;;;1.00;1.00;;;;;9.36;65.75;101096.09;5039633;28;45407;-45
2022/02/06 09:45:30;;;;;;;;;4.50;1.25;;;;;9.40;65.84;101099.59;5039299;28;45323;-54
2022/02/06 09:47:56;;;;;;;;;2.00;1.00;;;;;9.38;65.63;101083.88;5038226;28;45264;-44
2022/02/06 09:50:22;;;;;;;;;4.00;2.00;;;;;9.39;65.52;101082.94;5039453;28;45346;-48
2022/02/06 09:52:49;;;;;;;;;2.00;1.00;;;;;9.41;65.83;101080.34;5038125;28;45428;-43
2022/02/06 09:55:18;;;;;;;;;3.75;2.00;;;;;9.38;65.96;101076.00;5039104;28;45405;-44
2022/02/06 09:57:58;;;;;;;;;1.00;1.00;;;;;9.44;66.46;101089.06;5037901;28;45320;-45
2022/02/06 10:00:28;;;;;;;;;2.00;2.00;;;;;9.44;66.18;101096.06;5041380;28;45324;-46
2022/02/06 10:03:01;;;;;;;;;1.50;1.00;;;;;9.47;65.95;101095.19;5042944;28;45373;-42
2022/02/06 10:05:33;;;;;;;;;0.75;0.75;;;;;9.49;66.37;101088.19;5043018;28;46957;-43
2022/02/06 10:08:14;;;;;;;;;2.50;0.75;;;;;9.49;66.38;101075.94;5042813;28;45313;-44
2022/02/06 10:11:03;;;;;;;;;2.00;2.00;;;;;9.49;66.31;101057.56;5042444;28;45379;-45
2022/02/06 10:13:30;;;;;;;;;5.00;3.75;;;;;9.54;66.24;101091.66;5042796;28;45506;-43
2022/02/06 10:15:56;;;;;;;;;1.25;1.25;;;;;9.56;66.34;101063.69;5042503;28;46057;-46
2022/02/06 10:18:22;;;;;;;;;3.00;2.25;;;;;9.56;66.40;101064.53;5041269;28;45369;-45
2022/02/06 10:20:49;;;;;;;;;2.75;1.50;;;;;9.55;66.59;101049.66;5041429;28;45545;-48
2022/02/06 10:23:31;;;;;;;;;2.50;1.50;;;;;9.58;66.45;101051.41;5046069;28;45480;-47
2022/02/06 10:26:07;;;;;;;;;5.25;1.00;;;;;9.65;66.74;101060.09;5055877;28;47009;-45
2022/02/06 10:28:59;;;;;;;;;0.00;0.00;;;;;9.67;66.51;101076.72;5042215;27;45492;-49
2022/02/06 10:31:24;;;;;;;;;1.00;1.00;;;;;9.68;66.58;101087.19;5036283;28;45416;-48
2022/02/06 10:33:52;;;;;;;;;3.50;3.00;;;;;9.67;67.02;101071.47;5042343;28;45492;-49
2022/02/06 10:36:23;;;;;;;;;3.00;1.00;;;;;9.70;66.44;101074.09;5042049;28;46461;-49
2022/02/06 10:38:58;;;;;;;;;2.25;1.00;;;;;9.71;66.87;101073.19;5040212;28;46121;-51
2022/02/06 10:41:26;;;;;;;;;2.00;2.00;;;;;9.73;66.88;101060.94;5042156;28;45237;-47
2022/02/06 10:44:00;;;;;;;;;1.00;1.00;;;;;9.78;66.57;101074.06;5041921;28;45457;-48
2022/02/06 10:46:29;;;;;;;;;3.50;3.50;;;;;9.81;66.94;101063.53;5041915;28;46084;-46
2022/02/06 10:49:09;;;;;;;;;5.00;2.00;;;;;9.84;67.18;101074.03;5041875;28;45313;-45
2022/02/06 10:51:47;;;;;;;;;2.00;2.00;;;;;9.85;66.65;101066.13;5031509;28;45497;-47
2022/02/06 10:54:37;;;;;;;;;1.75;0.25;;;;;9.84;66.98;101047.78;5044767;28;45469;-50
2022/02/06 10:57:14;;;;;;;;;2.00;2.00;;;;;9.89;67.07;101085.38;5042309;28;46184;-45
2022/02/06 10:59:42;;;;;;;;;5.00;4.00;;;;;9.91;67.36;101062.56;5041736;28;45251;-46
2022/02/06 11:02:24;;;;;;;;;3.25;1.00;;;;;9.93;67.26;101058.19;5041922;28;45263;-45
2022/02/06 11:05:30;;;;;;;;;4.00;2.00;;;;;9.95;67.15;101066.94;5041542;28;45554;-44
2022/02/06 11:08:01;;;;;;;;;3.75;2.75;;;;;9.99;67.50;101046.81;5059510;28;46382;-44
2022/02/06 11:10:35;;;;;;;;;4.50;2.75;;;;;10.03;67.49;101036.25;5050816;28;46219;-45
2022/02/06 11:13:04;;;;;;;;;3.25;0.25;;;;;10.04;67.21;101029.25;5041046;28;45450;-49
2022/02/06 11:15:45;;;;;;;;;2.75;2.50;;;;;10.10;67.29;101005.59;5041621;28;45548;-44
2022/02/06 11:18:19;;;;;;;;;3.00;2.00;;;;;10.11;67.19;101009.91;5041558;28;47294;-46
2022/02/06 11:20:56;;;;;;;;;3.25;3.25;;;;;10.12;66.89;101016.94;5041417;28;45339;-46
2022/02/06 11:23:22;;;;;;;;;5.00;5.00;;;;;10.14;67.24;101001.16;5036300;28;45331;-46
2022/02/06 11:25:50;;;;;;;;;2.00;2.00;;;;;10.14;67.29;100969.63;5049724;28;45303;-48
2022/02/06 11:28:16;;;;;;;;;4.75;2.50;;;;;10.19;67.14;100983.63;5044985;28;48012;-48
2022/02/06 11:30:43;;;;;;;;;4.75;4.50;;;;;10.21;67.29;100960.81;5039559;28;45763;-47
2022/02/06 11:33:10;;;;;;;;;4.00;3.25;;;;;10.25;67.17;100952.91;5043390;28;45331;-46
2022/02/06 11:35:42;;;;;;;;;3.00;2.50;;;;;10.26;67.02;100948.53;5053010;28;45223;-47
2022/02/06 11:44:10;;;;;;;;;2.25;2.25;;;;;10.36;66.82;100966.00;5032062;28;45481;-47
2022/02/06 11:46:45;;;;;;;;;4.75;3.25;;;;;10.42;67.46;100972.94;5054425;28;45280;-49
2022/02/06 11:49:13;;;;;;;;;2.75;2.75;;;;;10.45;67.05;100948.38;5054584;28;45498;-45
2022/02/06 11:51:53;;;;;;;;;3.00;2.00;;;;;10.48;67.11;100935.22;5048278;28;45267;-47
2022/02/06 11:54:43;;;;;;;;;4.00;3.00;;;;;10.51;66.96;100935.19;5047490;28;45307;-50
2022/02/06 12:00:08;;;;;;;;;4.00;2.00;;;;;10.57;67.18;100951.75;5052272;28;45869;-48
2022/02/06 12:02:36;;;;;;;;;1.50;1.50;;;;;10.60;67.14;100919.28;5047578;28;45445;-54
2022/02/06 12:05:20;;;;;;;;;4.25;1.25;;;;;10.63;66.91;100927.16;5053659;28;45457;-52
2022/02/06 12:07:51;;;;;;;;;4.00;2.00;;;;;10.69;67.21;100971.78;5029369;28;45228;-52
2022/02/06 12:10:17;;;;;;;;;2.25;1.50;;;;;10.68;67.07;100921.88;5047000;28;45378;-44
2022/02/06 12:12:42;;;;;;;;;3.75;3.00;;;;;10.76;67.40;100941.03;5040791;28;45359;-48
2022/02/06 12:15:19;;;;;;;;;7.25;3.00;;;;;10.77;67.40;100924.38;5054375;28;45481;-48
2022/02/06 12:18:12;;;;;;;;;4.00;3.00;;;;;10.81;67.21;100954.97;5051853;28;45487;-44
2022/02/06 12:20:46;;;;;;;;;2.00;2.00;;;;;10.81;67.64;100928.69;5028216;28;46171;-49
2022/02/06 12:23:50;;;;;;;;;5.00;2.50;;;;;10.87;67.39;100926.00;5041572;28;45376;-48
2022/02/06 12:26:40;;;;;;;;;1.75;1.75;;;;;10.87;67.07;100910.22;4990582;28;45367;-50
2022/02/06 12:29:15;;;;;;;;;3.50;1.50;;;;;10.89;67.40;100886.53;4998707;28;45306;-48
2022/02/06 12:32:27;;;;;;;;;2.00;2.00;;;;;10.93;67.19;100921.53;5016446;28;46305;-50
2022/02/06 12:37:38;;;;;;;;;2.00;1.00;;;;;10.99;66.80;100890.78;5053331;28;45260;-48
2022/02/06 12:40:11;;;;;;;;;2.00;2.00;;;;;11.00;67.25;100882.00;5031114;28;45363;-48
2022/02/06 12:42:40;;;;;;;;;2.50;1.00;;;;;11.04;67.00;100869.69;5053653;28;46287;-49
2022/02/06 12:45:15;;;;;;;;;2.50;2.00;;;;;11.08;67.02;100894.19;5047327;28;45454;-50
2022/02/06 12:47:46;;;;;;;;;3.00;1.75;;;;;11.11;67.20;100854.69;5046750;28;45308;-47
2022/02/06 12:50:19;;;;;;;;;1.75;1.75;;;;;11.16;66.99;100868.66;5050851;28;45384;-52
2022/02/06 12:52:45;;;;;;;;;4.25;1.00;;;;;11.23;67.16;100867.63;5053718;28;46609;-52
2022/02/06 12:55:14;;;;;;;;;2.00;1.00;;;;;11.25;67.03;100881.66;5050265;28;45355;-50
2022/02/06 12:57:45;;;;;;;;;3.75;2.50;;;;;11.30;67.05;100876.34;5046891;28;45245;-50
2022/02/06 13:00:39;;;;;;;;;2.00;1.00;;;;;11.32;67.04;100857.00;5048344;28;45504;-52
2022/02/06 13:03:28;;;;;;;;;2.00;2.00;;;;;11.41;67.22;100856.00;5029086;28;46071;-51
2022/02/06 13:06:03;;;;;;;;;2.00;1.00;;;;;11.44;67.22;100858.56;5051861;28;45389;-54
2022/02/06 13:08:30;;;;;;;;;1.00;1.00;;;;;11.45;67.23;100856.81;5040170;28;45358;-49
2022/02/06 13:11:43;;;;;;;;;0.00;0.00;;;;;11.49;67.14;100861.97;5043570;28;45583;-51
2022/02/06 13:14:11;;;;;;;;;2.75;1.00;;;;;11.54;67.02;100835.59;5042951;28;46684;-51
2022/02/06 13:19:35;;;;;;;;;2.00;2.00;;;;;11.60;67.10;100851.28;5052316;28;45354;-50
2022/02/06 13:25:08;;;;;;;;;1.00;1.00;;;;;11.66;66.95;100845.91;5039664;28;45353;-52
2022/02/06 13:37:59;;;;;;;;;1.50;0.75;;;;;11.66;67.49;100864.34;5036022;28;45484;-54
2022/02/06 13:40:31;;;;;;;;;4.75;1.50;;;;;11.67;67.46;100863.47;5037623;28;45400;-52
2022/02/06 13:43:06;;;;;;;;;2.00;1.00;;;;;11.65;67.53;100859.97;5037918;28;45407;-51
2022/02/06 13:45:34;;;;;;;;;4.25;1.75;;;;;11.59;67.51;100844.28;5030214;28;47098;-48
2022/02/06 13:48:00;;;;;;;;;1.00;1.00;;;;;11.62;67.68;100857.41;5037952;28;45664;-50
2022/02/06 13:50:27;;;;;;;;;0.75;0.75;;;;;11.60;67.43;100819.69;5035724;28;45457;-49
2022/02/06 13:53:09;;;;;;;;;1.00;1.00;;;;;11.59;67.36;100828.50;5038286;28;45477;-46
2022/02/06 13:55:47;;;;;;;;;1.50;0.25;;;;;11.53;67.33;100818.06;5029289;28;46563;-49
2022/02/06 13:58:22;;;;;;;;;2.00;2.00;;;;;11.55;67.36;100842.59;5036294;28;45469;-50
2022/02/06 14:01:01;;;;;;;;;2.00;2.00;;;;;11.53;67.50;100818.94;5035319;28;45348;-50
2022/02/06 14:03:47;;;;;;;;;2.75;2.00;;;;;11.53;68.01;100812.78;5035333;28;45232;-51
2022/02/06 14:06:17;;;;;;;;;1.00;1.00;;;;;11.50;67.75;100802.34;5037611;28;45418;-52
2022/02/06 14:08:56;;;;;;;;;2.50;2.00;;;;;11.48;68.06;100777.81;5037445;28;45348;-50
2022/02/06 14:11:28;;;;;;;;;2.00;2.00;;;;;11.50;67.53;100807.59;5037704;28;45407;-49
2022/02/06 14:14:16;;;;;;;;;1.25;1.25;;;;;11.48;68.05;100810.25;5037381;28;45430;-54
2022/02/06 14:16:47;;;;;;;;;3.75;3.00;;;;;11.40;67.72;100774.44;5036886;28;46051;-53
2022/02/06 14:19:15;;;;;;;;;4.25;4.25;;;;;11.49;67.79;100787.44;5036249;28;45540;-52
2022/02/06 14:21:46;;;;;;;;;3.50;2.50;;;;;11.49;67.76;100776.91;5037576;28;45373;-50
2022/02/06 14:24:12;;;;;;;;;8.00;7.00;;;;;11.46;67.89;100790.09;5035596;28;45445;-52
2022/02/06 14:26:37;;;;;;;;;1.25;1.25;;;;;11.46;67.49;100754.16;5035820;28;46266;-52
2022/02/06 14:29:15;;;;;;;;;1.00;1.00;;;;;11.49;67.68;100758.50;5037494;28;45513;-48
2022/02/06 14:31:40;;;;;;;;;1.25;1.00;;;;;11.50;67.37;100757.59;5036503;28;45386;-53
2022/02/06 14:34:19;;;;;;;;;2.00;2.00;;;;;11.53;67.60;100760.16;5036003;28;45444;-48
2022/02/06 14:37:08;;;;;;;;;2.00;1.00;;;;;11.55;67.17;100758.38;5035498;28;45557;-52
2022/02/06 14:39:37;;;;;;;;;1.00;1.00;;;;;11.53;67.31;100741.75;5035609;28;45592;-47
2022/02/06 14:42:13;;;;;;;;;2.00;2.00;;;;;11.59;67.64;100915.34;5037233;28;45371;-51